KBTR/BTR METAR and TAF weather

Enter ICAO airport designator
Station Type Date Time Source
KBTR METAR 2018/04/21 10:53 UTC NOAA

KBTR 211053Z 04004KT 9SM CLR 10/08 A3011 RMK AO2 SLP194 T01000083


Station Type Date Time Source
KBTR Decoded METAR 2018/04/21 10:53 UTC NOAA

BATON ROUGE METRO RYAN FIELD, LA, United States (KBTR) 30-32N 91-09W 21M
Apr 21, 2018 - 06:53 AM EDT / 2018.04.21 1053 UTC
Wind: from the NE (040 degrees) at 5 MPH (4 KT):0
Visibility: 9 mile(s):0
Sky conditions: clear
Temperature: 50.0 F (10.0 C)
Dew Point: 46.9 F (8.3 C)
Relative Humidity: 89%
Pressure (altimeter): 30.11 in. Hg (1019 hPa)
ob: KBTR 211053Z 04004KT 9SM CLR 10/08 A3011 RMK AO2 SLP194 T01000083
cycle: 11

Station Type Date Time Source
KBTR TAF 2018/04/21 12:22 UTC NOAA

TAF KBTR 211120Z 2112/2212 00000KT P6SM BKN250
FM211400 12008KT P6SM BKN250
FM220600 12007KT P6SM VCSH OVC025
FM220900 13007KT 5SM SHRA VCTS OVC015CB
FM221100 13007KT 5SM SHRA VCTS OVC008CB


Example: see airport list